Time;durP1;ratioP1;P1;durP2;ratioP2;P2;SDS_P1;SDS_P2;PMS_P1;PMS_P2;Temp;Humidity;BMP_temperature;BMP_pressure;BME280_temperature;BME280_humidity;BME280_pressure;Samples;Min_cycle;Max_cycle;Signal;HPM_P1;HPM_P2
2022/07/15 00:00:13;;;;;;;3.20;0.50;;;;;;;15.65;64.85;100164.11;106869;1271;24270;-66
2022/07/15 00:03:03;;;;;;;5.80;0.60;;;;;;;15.64;64.69;100170.52;109695;1273;22185;-66
2022/07/15 00:05:32;;;;;;;7.90;0.90;;;;;;;15.61;64.85;100168.67;109779;1271;23624;-66
2022/07/15 00:08:01;;;;;;;4.60;0.70;;;;;;;15.61;65.24;100165.45;109760;1271;22405;-66
2022/07/15 00:10:31;;;;;;;6.80;0.80;;;;;;;15.65;65.05;100162.07;109647;1271;22594;-66
2022/07/15 00:13:00;;;;;;;;;;;;;;;15.68;65.15;100159.10;106196;1270;26458;-65
2022/07/15 00:15:31;;;;;;;5.10;0.80;;;;;;;15.68;65.47;100158.02;105856;1273;22534;-68
2022/07/15 00:18:03;;;;;;;8.30;0.70;;;;;;;15.66;65.58;100159.51;106088;1271;22679;-66
2022/07/15 00:20:33;;;;;;;6.10;0.90;;;;;;;15.63;65.35;100162.28;106159;1273;25586;-66
2022/07/15 00:23:03;;;;;;;6.90;0.70;;;;;;;15.59;65.22;100161.72;105737;1271;24371;-66
2022/07/15 00:25:33;;;;;;;3.40;0.60;;;;;;;15.55;64.92;100164.09;105941;1271;25273;-65
2022/07/15 00:28:04;;;;;;;8.00;1.40;;;;;;;15.48;64.79;100168.25;105947;1273;22541;-67
2022/07/15 00:30:35;;;;;;;7.20;1.10;;;;;;;15.42;65.03;100176.77;105905;1273;22748;-65
2022/07/15 00:33:04;;;;;;;8.10;1.20;;;;;;;15.38;65.30;100173.92;105840;1271;26034;-65
2022/07/15 00:35:35;;;;;;;6.10;0.70;;;;;;;15.34;65.51;100169.77;105914;1271;25462;-65
2022/07/15 00:38:07;;;;;;;6.10;0.90;;;;;;;15.31;65.80;100173.36;105691;1273;23116;-66
2022/07/15 00:40:41;;;;;;;6.90;0.90;;;;;;;15.26;65.44;100174.75;105944;1273;24323;-65
2022/07/15 00:43:10;;;;;;;5.60;1.10;;;;;;;15.22;65.61;100176.80;106016;1273;23000;-65
2022/07/15 00:45:39;;;;;;;7.60;0.90;;;;;;;15.18;65.49;100180.17;105768;1271;26491;-66
2022/07/15 00:48:08;;;;;;;5.00;0.80;;;;;;;15.15;65.70;100183.20;106118;1271;23067;-63
2022/07/15 00:50:39;;;;;;;7.00;0.90;;;;;;;15.08;65.97;100185.96;105988;1273;24589;-67
2022/07/15 00:53:12;;;;;;;7.10;1.20;;;;;;;15.02;66.16;100185.18;105938;1271;24214;-67
2022/07/15 00:55:43;;;;;;;6.50;0.90;;;;;;;14.98;66.37;100183.95;105873;1270;25322;-65
2022/07/15 00:58:17;;;;;;;3.30;0.70;;;;;;;14.92;66.33;100183.14;105790;1271;22535;-66
2022/07/15 01:00:47;;;;;;;6.60;1.30;;;;;;;14.87;66.41;100182.77;105906;1271;24320;-65
2022/07/15 01:03:18;;;;;;;5.60;0.90;;;;;;;14.81;66.38;100185.70;105863;1271;22705;-67
2022/07/15 01:05:48;;;;;;;9.90;0.90;;;;;;;14.77;66.73;100186.80;105942;1271;23077;-66
2022/07/15 01:08:18;;;;;;;5.20;0.60;;;;;;;14.73;66.95;100185.89;106173;1271;22564;-67
2022/07/15 01:10:47;;;;;;;;;;;;;;;14.70;66.92;100188.54;106019;1271;22475;-66
2022/07/15 01:13:16;;;;;;;5.00;0.80;;;;;;;14.65;66.86;100188.16;106084;1271;22802;-66
2022/07/15 01:15:46;;;;;;;7.50;0.80;;;;;;;14.63;66.70;100192.09;105756;1273;25436;-66
2022/07/15 01:18:15;;;;;;;5.10;0.80;;;;;;;14.59;66.89;100193.06;106005;1273;23487;-66
2022/07/15 01:20:46;;;;;;;7.30;1.00;;;;;;;14.55;66.98;100193.88;105908;1271;25368;-66
2022/07/15 01:23:15;;;;;;;3.50;0.80;;;;;;;14.49;66.80;100207.96;106103;1271;22568;-69
2022/07/15 01:25:45;;;;;;;5.90;0.60;;;;;;;14.39;66.63;100213.19;106140;1271;22557;-65
2022/07/15 01:28:14;;;;;;;5.60;0.90;;;;;;;14.36;66.74;100203.02;105929;1270;22538;-66
2022/07/15 01:30:43;;;;;;;6.90;0.80;;;;;;;14.32;66.76;100209.75;105848;1271;25477;-67
2022/07/15 01:33:12;;;;;;;6.80;0.70;;;;;;;14.30;66.85;100207.70;106223;1271;24276;-66
2022/07/15 01:35:42;;;;;;;6.00;1.00;;;;;;;14.27;66.90;100213.73;106187;1273;22580;-65
2022/07/15 01:38:11;;;;;;;10.40;1.40;;;;;;;14.25;66.85;100212.91;106081;1271;23329;-65
2022/07/15 01:40:40;;;;;;;5.90;0.80;;;;;;;14.24;67.26;100215.35;106002;1271;22694;-66
2022/07/15 01:43:09;;;;;;;4.50;1.00;;;;;;;14.24;67.05;100216.32;106022;1271;24218;-65
2022/07/15 01:45:42;;;;;;;10.20;1.10;;;;;;;14.24;67.09;100216.73;105881;1270;22637;-65
2022/07/15 01:49:21;;;;;;;7.30;0.90;;;;;;;14.25;67.12;100218.38;106066;1272;22638;-65
2022/07/15 01:51:02;;;;;;;7.60;1.10;;;;;;;14.25;67.25;100219.13;105811;1271;22547;-66
2022/07/15 01:53:32;;;;;;;9.00;0.90;;;;;;;14.25;67.18;100226.08;105899;1272;22869;-66
2022/07/15 01:56:01;;;;;;;6.00;1.00;;;;;;;14.22;67.18;100228.02;105833;1272;22473;-66
2022/07/15 01:58:30;;;;;;;11.90;1.00;;;;;;;14.20;67.13;100228.41;105828;1273;24450;-65
2022/07/15 02:00:59;;;;;;;5.90;1.00;;;;;;;14.18;67.30;100233.86;106039;1273;22679;-68
2022/07/15 02:03:28;;;;;;;7.60;1.00;;;;;;;14.15;67.38;100234.05;105978;1273;24397;-66
2022/07/15 02:05:57;;;;;;;7.40;1.00;;;;;;;14.14;67.41;100236.49;106098;1271;22551;-66
2022/07/15 02:08:26;;;;;;;7.60;1.00;;;;;;;14.13;67.52;100232.27;106313;1271;22553;-66
2022/07/15 02:10:55;;;;;;;5.90;0.90;;;;;;;14.12;67.42;100234.15;105770;1271;22553;-66
2022/07/15 02:13:24;;;;;;;6.70;0.90;;;;;;;14.12;67.23;100232.45;105953;1271;22598;-66
2022/07/15 02:15:54;;;;;;;5.50;1.00;;;;;;;14.12;66.88;100235.67;106150;1271;25263;-66
2022/07/15 02:18:23;;;;;;;5.30;0.50;;;;;;;14.14;66.34;100234.60;106177;1271;26659;-67
2022/07/15 02:20:52;;;;;;;6.80;0.80;;;;;;;14.17;66.21;100237.63;105797;1271;22843;-66
2022/07/15 02:23:21;;;;;;;9.10;0.70;;;;;;;14.21;65.90;100245.00;105877;1273;22607;-65
2022/07/15 02:25:50;;;;;;;4.50;0.70;;;;;;;14.25;65.94;100245.89;105988;1273;25350;-66
2022/07/15 02:28:19;;;;;;;4.80;0.60;;;;;;;14.27;65.79;100248.85;105801;1273;22615;-65
2022/07/15 02:30:48;;;;;;;5.60;0.80;;;;;;;14.29;65.48;100251.55;105778;1271;24310;-65
2022/07/15 02:33:17;;;;;;;13.30;0.70;;;;;;;14.30;65.52;100250.38;105998;1271;24324;-66
2022/07/15 02:35:45;;;;;;;6.30;0.80;;;;;;;14.31;64.97;100255.94;105964;1271;25400;-66
2022/07/15 02:38:14;;;;;;;3.30;0.40;;;;;;;14.31;65.20;100258.81;105782;1271;22667;-67
2022/07/15 02:40:43;;;;;;;2.60;0.60;;;;;;;14.29;65.18;100261.25;106096;1272;25256;-66
2022/07/15 02:43:12;;;;;;;4.00;0.70;;;;;;;14.26;64.96;100261.83;105984;1270;25354;-66
2022/07/15 02:45:42;;;;;;;4.90;0.70;;;;;;;14.23;64.84;100260.08;105827;1271;22553;-65
2022/07/15 02:48:11;;;;;;;3.90;0.50;;;;;;;14.22;64.79;100263.59;105847;1273;25341;-66
2022/07/15 02:50:40;;;;;;;4.10;0.70;;;;;;;14.19;64.99;100264.39;105803;1272;24277;-65
2022/07/15 02:53:10;;;;;;;4.80;0.70;;;;;;;14.16;64.88;100271.11;106065;1271;25566;-67
2022/07/15 02:55:39;;;;;;;7.50;0.70;;;;;;;14.13;64.98;100271.98;105914;1271;24319;-65
2022/07/15 02:58:09;;;;;;;4.10;0.90;;;;;;;14.10;64.95;100277.20;106003;1271;22574;-66
2022/07/15 03:00:39;;;;;;;3.50;0.60;;;;;;;14.06;64.89;100283.17;105836;1273;22555;-66
2022/07/15 03:03:08;;;;;;;5.70;0.70;;;;;;;14.03;65.05;100282.17;105833;1273;24383;-66
2022/07/15 03:05:37;;;;;;;6.90;0.80;;;;;;;13.99;64.99;100284.86;106066;1270;23938;-66
2022/07/15 03:08:07;;;;;;;4.60;0.70;;;;;;;13.93;65.16;100290.29;105939;1270;24322;-65
2022/07/15 03:10:36;;;;;;;5.70;0.70;;;;;;;13.90;65.06;100293.63;105809;1272;24432;-65
2022/07/15 03:13:05;;;;;;;4.40;0.70;;;;;;;13.86;65.26;100298.34;105777;1273;23591;-66
2022/07/15 03:15:34;;;;;;;4.00;0.50;;;;;;;13.81;65.17;100299.90;105996;1271;22533;-65
2022/07/15 03:18:03;;;;;;;4.70;0.80;;;;;;;13.77;65.38;100306.45;105957;1273;25634;-66
2022/07/15 03:20:32;;;;;;;4.30;0.50;;;;;;;13.73;65.29;100310.59;106260;1271;22928;-66
2022/07/15 03:23:04;;;;;;;4.70;0.60;;;;;;;13.69;65.67;100316.43;105857;1271;25382;-66
2022/07/15 03:25:33;;;;;;;4.10;0.50;;;;;;;13.66;65.44;100319.02;105908;1270;22540;-67
2022/07/15 03:28:02;;;;;;;4.60;0.60;;;;;;;13.65;65.46;100322.68;105817;1271;25347;-65
2022/07/15 03:30:31;;;;;;;3.80;0.50;;;;;;;13.64;65.54;100325.13;105845;1273;24392;-66
2022/07/15 03:33:00;;;;;;;7.10;0.70;;;;;;;13.62;65.61;100329.56;105917;1273;22881;-66
2022/07/15 03:35:31;;;;;;;4.20;0.60;;;;;;;13.62;65.57;100330.14;105880;1273;22696;-67
2022/07/15 03:38:00;;;;;;;4.50;0.60;;;;;;;13.60;65.63;100335.45;106012;1273;24283;-66
2022/07/15 03:40:29;;;;;;;1.90;0.30;;;;;;;13.58;65.43;100337.21;105956;1273;22547;-66
2022/07/15 03:42:57;;;;;;;4.10;0.50;;;;;;;13.58;65.50;100340.27;105856;1273;22700;-66
2022/07/15 03:45:28;;;;;;;4.10;0.50;;;;;;;13.58;65.68;100348.33;103813;1273;5566513;-68
2022/07/15 03:47:57;;;;;;;4.10;0.60;;;;;;;13.62;65.51;100346.84;105724;1273;22552;-65
2022/07/15 03:50:26;;;;;;;6.80;0.50;;;;;;;13.70;65.30;100350.89;106181;1273;22544;-66
2022/07/15 03:52:55;;;;;;;4.90;0.50;;;;;;;13.73;65.43;100353.65;105785;1273;25538;-66
2022/07/15 03:55:24;;;;;;;1.60;0.40;;;;;;;13.75;65.34;100357.45;105856;1273;22577;-66
2022/07/15 03:57:55;;;;;;;2.40;0.40;;;;;;;13.77;65.29;100364.00;105881;1273;24284;-66
2022/07/15 04:00:25;;;;;;;7.80;0.40;;;;;;;13.82;64.86;100363.52;105762;1273;24298;-66
2022/07/15 04:02:53;;;;;;;4.20;0.40;;;;;;;13.86;65.15;100362.23;105897;1273;24305;-66
2022/07/15 04:05:23;;;;;;;5.20;0.40;;;;;;;13.89;65.06;100363.83;106153;1273;22859;-66
2022/07/15 04:07:51;;;;;;;3.80;0.30;;;;;;;13.93;65.11;100362.13;105721;1273;22709;-66
2022/07/15 04:10:21;;;;;;;4.10;0.50;;;;;;;13.96;64.73;100361.53;105793;1272;24497;-66
2022/07/15 04:12:49;;;;;;;2.60;0.40;;;;;;;13.99;64.73;100365.34;106011;1271;24231;-66
2022/07/15 04:15:18;;;;;;;4.60;0.40;;;;;;;14.04;64.79;100366.45;105885;1273;24872;-65
2022/07/15 04:17:47;;;;;;;2.70;0.50;;;;;;;14.09;64.84;100371.48;106081;1271;24281;-67
2022/07/15 04:20:16;;;;;;;4.20;0.30;;;;;;;14.12;64.73;100374.10;105952;1273;25352;-65
2022/07/15 04:22:47;;;;;;;3.20;0.30;;;;;;;14.17;64.66;100375.06;106101;1273;24554;-66
2022/07/15 04:25:18;;;;;;;4.10;0.50;;;;;;;14.23;64.31;100375.65;105966;1273;22557;-67
2022/07/15 04:27:48;;;;;;;4.40;0.60;;;;;;;14.29;64.13;100378.50;105790;1271;22593;-66
2022/07/15 04:30:17;;;;;;;5.60;0.50;;;;;;;14.34;63.97;100385.35;105934;1271;25393;-67
2022/07/15 04:32:46;;;;;;;4.30;0.40;;;;;;;14.38;63.74;100389.41;106089;1271;24108;-66
2022/07/15 04:35:15;;;;;;;8.20;0.40;;;;;;;14.43;63.62;100392.61;106007;1273;25322;-68
2022/07/15 04:37:44;;;;;;;3.90;0.30;;;;;;;14.49;63.50;100395.75;106008;1271;22598;-66
2022/07/15 04:40:14;;;;;;;4.30;0.40;;;;;;;14.55;62.98;100397.22;106114;1273;22723;-68
2022/07/15 04:42:43;;;;;;;2.70;0.50;;;;;;;14.61;63.04;100403.33;105931;1273;24321;-66
2022/07/15 04:45:13;;;;;;;4.20;0.40;;;;;;;14.67;62.77;100405.09;105895;1272;22626;-67
2022/07/15 04:47:41;;;;;;;3.80;0.40;;;;;;;14.73;62.51;100410.17;105675;1271;25403;-67
2022/07/15 04:53:03;;;;;;;2.90;0.30;;;;;;;14.81;61.97;100408.58;105473;1279;22629;-67
2022/07/15 04:55:33;;;;;;;4.90;0.50;;;;;;;14.82;61.82;100409.86;105675;1279;25371;-68
2022/07/15 04:58:02;;;;;;;1.30;0.30;;;;;;;14.81;61.62;100413.61;105522;1279;24242;-68
2022/07/15 05:00:31;;;;;;;1.40;0.20;;;;;;;14.82;62.04;100414.36;105508;1276;22547;-67
2022/07/15 05:03:04;;;;;;;3.70;0.20;;;;;;;14.85;61.90;100414.58;105686;1277;26535;-66
2022/07/15 05:05:33;;;;;;;2.00;0.20;;;;;;;14.90;61.50;100420.17;105638;1277;22550;-68
2022/07/15 05:08:03;;;;;;;1.60;0.30;;;;;;;14.90;61.45;100423.24;105794;1276;24334;-67
2022/07/15 05:10:31;;;;;;;4.70;0.30;;;;;;;14.91;61.07;100430.52;105596;1276;22544;-67
2022/07/15 05:13:01;;;;;;;5.80;0.50;;;;;;;14.94;61.47;100441.56;105615;1276;24914;-67
2022/07/15 05:15:30;;;;;;;3.10;0.30;;;;;;;14.95;60.88;100440.03;105413;1276;24032;-68
2022/07/15 05:17:59;;;;;;;1.90;0.40;;;;;;;14.98;60.86;100444.59;105574;1276;23093;-66
2022/07/15 05:20:28;;;;;;;2.90;0.30;;;;;;;15.01;61.03;100445.48;105435;1276;24395;-67
2022/07/15 05:22:57;;;;;;;2.20;0.30;;;;;;;15.06;60.94;100449.73;105565;1276;25891;-67
2022/07/15 05:25:26;;;;;;;2.80;0.40;;;;;;;15.11;60.76;100455.08;105577;1276;22567;-67
2022/07/15 05:27:56;;;;;;;3.10;0.20;;;;;;;15.13;60.35;100458.26;105612;1276;22778;-67
2022/07/15 05:30:25;;;;;;;1.90;0.30;;;;;;;15.13;60.25;100454.73;105734;1273;22596;-67
2022/07/15 05:32:54;;;;;;;3.00;0.50;;;;;;;15.13;60.14;100460.05;105677;1271;22635;-67
2022/07/15 05:35:23;;;;;;;5.20;0.50;;;;;;;15.16;60.12;100465.73;105835;1271;24358;-67
2022/07/15 05:37:52;;;;;;;2.70;0.20;;;;;;;15.22;60.05;100461.66;105818;1273;26685;-66
2022/07/15 05:40:23;;;;;;;2.20;0.30;;;;;;;15.24;59.44;100466.83;106344;1271;24279;-67
2022/07/15 05:42:53;;;;;;;4.80;0.30;;;;;;;15.23;59.28;100470.10;105803;1271;22660;-67
2022/07/15 05:45:23;;;;;;;2.30;0.40;;;;;;;15.20;59.10;100474.84;105822;1272;22624;-67
2022/07/15 05:47:52;;;;;;;5.50;0.40;;;;;;;15.20;59.33;100474.17;106099;1272;22560;-67
2022/07/15 05:50:21;;;;;;;4.00;0.50;;;;;;;15.22;59.30;100474.95;106537;1263;22550;-54
2022/07/15 05:52:51;;;;;;;4.60;1.00;;;;;;;15.28;59.26;100479.48;106061;1270;22757;-55
2022/07/15 05:55:20;;;;;;;7.10;0.80;;;;;;;15.33;58.92;100482.98;105860;1270;25250;-55
2022/07/15 05:57:50;;;;;;;6.10;0.40;;;;;;;15.34;58.79;100480.42;106181;1270;22523;-55
2022/07/15 06:00:19;;;;;;;4.90;0.40;;;;;;;15.39;58.61;100487.30;105930;1270;24511;-55
2022/07/15 06:02:47;;;;;;;2.80;0.40;;;;;;;15.43;58.61;100488.50;106097;1270;25359;-56
2022/07/15 06:05:16;;;;;;;6.20;0.40;;;;;;;15.48;58.64;100491.70;106221;1270;26630;-56
2022/07/15 06:07:45;;;;;;;2.80;0.50;;;;;;;15.53;58.07;100494.52;106158;1270;22553;-56
2022/07/15 06:10:14;;;;;;;3.20;0.30;;;;;;;15.57;58.08;100492.55;105974;1270;22576;-54
2022/07/15 06:12:43;;;;;;;3.20;0.30;;;;;;;15.63;57.88;100486.98;106007;1270;25262;-56
2022/07/15 06:15:12;;;;;;;3.20;0.40;;;;;;;15.67;57.77;100496.52;105960;1270;23644;-52
2022/07/15 06:17:42;;;;;;;4.40;0.40;;;;;;;15.74;58.08;100496.89;106007;1270;22554;-55
2022/07/15 06:20:12;;;;;;;5.10;0.50;;;;;;;15.78;56.95;100498.12;105784;1270;22698;-54
2022/07/15 06:22:41;;;;;;;;;;;;;;;15.81;57.71;100503.48;105995;1270;22604;-55
2022/07/15 06:25:10;;;;;;;4.90;0.30;;;;;;;15.85;57.52;100502.74;106056;1270;22574;-55
2022/07/15 06:27:43;;;;;;;3.80;0.30;;;;;;;15.93;57.30;100506.39;106009;1270;22534;-54
2022/07/15 06:30:13;;;;;;;4.30;0.30;;;;;;;15.98;56.50;100510.59;106113;1270;25406;-56
2022/07/15 06:32:42;;;;;;;1.50;0.20;;;;;;;15.99;54.86;100512.18;106070;1270;25394;-56
2022/07/15 06:35:11;;;;;;;5.60;0.30;;;;;;;15.99;55.55;100508.86;106031;1270;22697;-56
2022/07/15 06:37:41;;;;;;;3.70;0.20;;;;;;;16.06;55.58;100512.23;106135;1270;24215;-56
2022/07/15 06:40:13;;;;;;;3.00;0.30;;;;;;;16.14;56.04;100514.40;106133;1270;25391;-53
2022/07/15 06:42:41;;;;;;;;;;;;;;;16.23;55.63;100515.42;105914;1270;22672;-55
2022/07/15 06:45:11;;;;;;;3.70;0.30;;;;;;;16.27;54.91;100516.09;105752;1270;22777;-52
2022/07/15 06:47:42;;;;;;;4.50;0.30;;;;;;;16.31;55.16;100516.81;105857;1270;25479;-53
2022/07/15 06:50:11;;;;;;;2.80;0.30;;;;;;;16.34;54.72;100513.48;105928;1270;22601;-53
2022/07/15 06:52:40;;;;;;;5.20;0.50;;;;;;;16.37;54.82;100511.23;106087;1269;22835;-52
2022/07/15 06:55:11;;;;;;;5.70;0.30;;;;;;;16.44;55.21;100519.69;105865;1270;22504;-55
2022/07/15 06:57:41;;;;;;;4.00;0.30;;;;;;;16.52;54.26;100515.65;106115;1270;22542;-55
2022/07/15 07:00:12;;;;;;;1.50;0.20;;;;;;;16.58;54.15;100517.96;105721;1270;22580;-55
2022/07/15 07:02:41;;;;;;;3.40;0.40;;;;;;;16.64;54.28;100524.20;106237;1271;24215;-56
2022/07/15 07:05:11;;;;;;;7.70;0.40;;;;;;;16.68;53.56;100522.25;105831;1271;22546;-55
2022/07/15 07:07:40;;;;;;;1.70;0.20;;;;;;;16.68;53.70;100522.41;106482;1270;25522;-54
2022/07/15 07:10:10;;;;;;;4.10;0.30;;;;;;;16.71;53.42;100530.14;105813;1270;24270;-55
2022/07/15 07:12:39;;;;;;;5.70;0.40;;;;;;;16.75;53.16;100524.23;106082;1270;22580;-51
2022/07/15 07:15:09;;;;;;;5.60;0.40;;;;;;;16.82;53.13;100524.74;106005;1270;24222;-55
2022/07/15 07:17:38;;;;;;;3.10;0.30;;;;;;;16.89;52.98;100530.17;105941;1271;22587;-56
2022/07/15 07:20:09;;;;;;;4.40;0.60;;;;;;;16.96;52.64;100529.64;106070;1270;22554;-55
2022/07/15 07:22:38;;;;;;;5.20;0.40;;;;;;;16.99;52.66;100534.34;105940;1270;22540;-55
2022/07/15 07:25:08;;;;;;;2.00;0.30;;;;;;;17.04;52.26;100541.77;105947;1270;25498;-54
2022/07/15 07:27:37;;;;;;;4.00;0.30;;;;;;;17.07;52.05;100536.84;106040;1270;22554;-54
2022/07/15 07:30:08;;;;;;;4.00;0.40;;;;;;;17.07;52.52;100527.14;105961;1270;24259;-55
2022/07/15 07:32:37;;;;;;;2.30;0.30;;;;;;;17.15;52.35;100532.20;106069;1270;25319;-55
2022/07/15 07:35:08;;;;;;;4.00;0.40;;;;;;;17.23;52.27;100535.61;106064;1271;25528;-55
2022/07/15 07:37:38;;;;;;;3.80;0.90;;;;;;;17.28;52.26;100534.05;106064;1270;24221;-55
2022/07/15 07:40:09;;;;;;;2.30;0.40;;;;;;;17.36;51.99;100535.00;106184;1270;24201;-54
2022/07/15 07:42:41;;;;;;;5.20;0.40;;;;;;;17.38;51.77;100536.17;105992;1270;23045;-55
2022/07/15 07:45:13;;;;;;;4.50;0.30;;;;;;;17.47;51.62;100537.89;106246;1271;24524;-54
2022/07/15 07:47:43;;;;;;;3.20;0.30;;;;;;;17.56;51.19;100540.80;105880;1270;22566;-55
2022/07/15 07:50:12;;;;;;;5.30;0.30;;;;;;;17.60;50.89;100542.72;106070;1270;22835;-55
2022/07/15 07:52:41;;;;;;;4.50;0.40;;;;;;;17.65;51.04;100535.00;105944;1270;23061;-54
2022/07/15 07:55:11;;;;;;;3.90;0.30;;;;;;;17.70;50.96;100535.85;106104;1270;24299;-54
2022/07/15 07:57:50;;;;;;;4.80;0.40;;;;;;;17.76;50.56;100534.52;106004;1270;24299;-55
2022/07/15 08:00:19;;;;;;;5.00;0.60;;;;;;;17.73;50.43;100535.27;105937;1270;22557;-52
2022/07/15 08:02:49;;;;;;;6.60;1.00;;;;;;;17.69;50.27;100533.95;105982;1271;24230;-56
2022/07/15 08:05:18;;;;;;;2.20;0.30;;;;;;;17.66;50.56;100535.98;105997;1270;22720;-55
2022/07/15 08:07:47;;;;;;;4.10;0.40;;;;;;;17.72;50.41;100534.86;105901;1271;24293;-55
2022/07/15 08:10:17;;;;;;;2.70;0.30;;;;;;;17.80;50.30;100532.15;105964;1271;23141;-54
2022/07/15 08:12:45;;;;;;;8.50;0.60;;;;;;;17.93;50.43;100529.65;105889;1271;23152;-55
2022/07/15 08:15:15;;;;;;;4.20;0.40;;;;;;;18.04;49.99;100534.52;105758;1270;22606;-56
2022/07/15 08:17:44;;;;;;;3.20;0.30;;;;;;;18.12;48.92;100529.27;105961;1270;23182;-52
2022/07/15 08:20:13;;;;;;;2.00;0.20;;;;;;;18.14;48.49;100528.03;106153;1270;22538;-54
2022/07/15 08:22:42;;;;;;;4.10;0.30;;;;;;;18.16;48.53;100528.31;106006;1270;22557;-53
2022/07/15 08:25:11;;;;;;;4.20;0.30;;;;;;;18.17;48.70;100531.23;105848;1270;25008;-54
2022/07/15 08:27:40;;;;;;;1.50;0.20;;;;;;;18.15;47.83;100534.38;106018;1271;24234;-55
2022/07/15 08:30:10;;;;;;;6.10;0.30;;;;;;;18.11;47.69;100529.64;106050;1270;22613;-56
2022/07/15 08:32:38;;;;;;;;;;;;;;;18.19;48.66;100528.70;106049;1271;23961;-56
2022/07/15 08:35:08;;;;;;;2.90;0.40;;;;;;;18.30;48.66;100531.85;105893;1271;22582;-55
2022/07/15 08:37:37;;;;;;;2.20;0.30;;;;;;;18.41;48.65;100534.27;106084;1270;22968;-56
2022/07/15 08:40:09;;;;;;;3.20;0.20;;;;;;;18.52;48.78;100542.13;106171;1270;24308;-56
2022/07/15 08:42:41;;;;;;;1.40;0.20;;;;;;;18.53;47.38;100540.48;106197;1271;25732;-55
2022/07/15 08:45:12;;;;;;;3.40;0.40;;;;;;;18.40;47.50;100545.52;106061;1271;23145;-55
2022/07/15 08:47:42;;;;;;;4.30;0.40;;;;;;;18.27;47.51;100547.77;106033;1271;24344;-52
2022/07/15 08:50:11;;;;;;;;;;;;;;;18.13;47.55;100551.14;105914;1270;22519;-56
2022/07/15 08:52:43;;;;;;;4.10;0.20;;;;;;;18.10;47.80;100553.95;106005;1270;23271;-56
2022/07/15 08:55:13;;;;;;;4.20;0.30;;;;;;;18.07;47.27;100555.40;106054;1271;25376;-56
2022/07/15 08:57:45;;;;;;;3.40;0.20;;;;;;;18.06;47.26;100556.14;106045;1270;22601;-55
2022/07/15 09:00:16;;;;;;;2.10;0.30;;;;;;;18.08;47.57;100546.30;107009;1270;24084;-55
2022/07/15 09:02:45;;;;;;;2.70;0.40;;;;;;;18.16;47.68;100548.88;106245;1270;23998;-56
2022/07/15 09:05:27;;;;;;;3.10;0.20;;;;;;;18.19;47.46;100552.13;105972;1270;22970;-54
2022/07/15 09:07:59;;;;;;;3.00;0.20;;;;;;;18.18;47.29;100558.56;106470;1270;22530;-55
2022/07/15 09:10:43;;;;;;;3.90;0.30;;;;;;;18.13;47.30;100562.30;105893;1271;22534;-52
2022/07/15 09:13:21;;;;;;;2.00;0.20;;;;;;;18.10;47.62;100565.40;105973;1271;24415;-55
2022/07/15 09:15:51;;;;;;;4.10;0.30;;;;;;;18.09;47.85;100566.80;106112;1271;22579;-54
2022/07/15 09:18:21;;;;;;;4.00;0.30;;;;;;;18.15;48.23;100562.38;106135;1271;22535;-56
2022/07/15 09:21:16;;;;;;;5.30;0.50;;;;;;;18.31;47.89;100557.54;105839;1271;22801;-56
2022/07/15 09:23:47;;;;;;;4.10;0.40;;;;;;;18.51;47.76;100555.20;105916;1270;24267;-53
2022/07/15 09:26:27;;;;;;;4.70;0.40;;;;;;;18.73;46.84;100564.89;105934;1270;25227;-56
2022/07/15 09:28:57;;;;;;;3.50;0.70;;;;;;;18.85;46.27;100565.70;106166;1270;24340;-56
2022/07/15 09:34:19;;;;;;;2.60;0.20;;;;;;;18.88;45.94;100567.42;105957;1270;25362;-55
2022/07/15 09:36:52;;;;;;;5.90;0.30;;;;;;;18.83;45.55;100566.44;106085;1271;24259;-54
2022/07/15 09:39:23;;;;;;;1.80;0.20;;;;;;;18.78;44.62;100566.80;106113;1270;24922;-52
2022/07/15 09:41:52;;;;;;;1.60;0.20;;;;;;;18.70;44.13;100560.33;106158;1270;22600;-56
2022/07/15 09:44:23;;;;;;;2.70;0.20;;;;;;;18.69;44.82;100561.68;105939;1270;22563;-56
2022/07/15 09:46:53;;;;;;;7.20;0.40;;;;;;;18.82;44.95;100555.61;106089;1270;22650;-55
2022/07/15 09:49:34;;;;;;;2.70;0.20;;;;;;;18.94;44.11;100557.33;106360;1270;25248;-55
2022/07/15 09:52:07;;;;;;;2.90;0.40;;;;;;;18.98;43.65;100563.72;106160;1270;22583;-55
2022/07/15 09:54:37;;;;;;;2.40;0.20;;;;;;;19.05;43.81;100563.55;106334;1270;25464;-54
2022/07/15 09:57:08;;;;;;;4.10;0.30;;;;;;;19.11;42.78;100564.73;106022;1270;22540;-55
2022/07/15 09:59:37;;;;;;;4.70;0.20;;;;;;;19.03;42.20;100565.57;106436;1270;22596;-56
2022/07/15 10:02:06;;;;;;;4.60;0.20;;;;;;;18.96;42.66;100566.42;106188;1270;25597;-53
2022/07/15 10:04:35;;;;;;;5.90;0.30;;;;;;;18.96;42.78;100564.67;106230;1271;22557;-55
2022/07/15 10:07:05;;;;;;;2.10;0.20;;;;;;;18.96;42.60;100568.33;105993;1270;22623;-56
2022/07/15 10:09:36;;;;;;;3.70;0.70;;;;;;;18.90;42.34;100563.65;105854;1270;22540;-55
2022/07/15 10:12:09;;;;;;;2.10;0.10;;;;;;;18.91;42.47;100565.09;105973;1270;22616;-56
2022/07/15 10:14:53;;;;;;;6.90;0.90;;;;;;;19.06;42.52;100562.65;106166;1270;23614;-55
2022/07/15 10:17:58;;;;;;;0.70;0.20;;;;;;;19.26;41.69;100559.45;105969;1271;22558;-56
2022/07/15 10:21:07;;;;;;;2.00;0.10;;;;;;;19.29;41.29;100564.35;105921;1271;22598;-57
2022/07/15 10:24:06;;;;;;;2.80;0.20;;;;;;;19.32;40.74;100574.47;105480;1276;22556;-55
2022/07/15 10:26:48;;;;;;;2.10;0.10;;;;;;;19.26;41.09;100571.30;105376;1276;22538;-55
2022/07/15 10:29:20;;;;;;;3.60;0.20;;;;;;;19.15;40.30;100579.23;105441;1276;22663;-57
2022/07/15 10:31:58;;;;;;;2.00;0.10;;;;;;;19.00;40.29;100572.76;105614;1276;22532;-51
2022/07/15 10:34:32;;;;;;;1.50;0.20;;;;;;;18.95;41.23;100575.73;105508;1276;24285;-55
2022/07/15 10:37:10;;;;;;;2.10;0.30;;;;;;;19.02;41.23;100566.98;105487;1276;22547;-55
2022/07/15 10:40:06;;;;;;;3.30;0.40;;;;;;;19.11;41.10;100564.83;105504;1276;25332;-54
2022/07/15 10:43:04;;;;;;;4.80;0.70;;;;;;;19.31;41.12;100558.13;105398;1276;24237;-54
2022/07/15 10:45:33;;;;;;;3.50;0.30;;;;;;;19.38;39.68;100564.14;105246;1280;22600;-54
2022/07/15 10:48:30;;;;;;;5.70;0.30;;;;;;;19.32;40.48;100563.42;105496;1279;23237;-50
2022/07/15 10:50:59;;;;;;;4.60;0.20;;;;;;;19.18;39.46;100569.99;104781;1285;22592;-51
2022/07/15 10:53:29;;;;;;;1.10;0.20;;;;;;;19.05;40.08;100573.12;105119;1284;22995;-53
2022/07/15 10:56:28;;;;;;;4.60;0.30;;;;;;;18.96;39.90;100568.89;105197;1280;22549;-50
2022/07/15 10:59:10;;;;;;;7.60;0.50;;;;;;;18.97;39.90;100563.06;105273;1281;22536;-51
2022/07/15 11:01:40;;;;;;;2.00;0.30;;;;;;;19.12;40.28;100564.71;105473;1280;24424;-52
2022/07/15 11:04:17;;;;;;;4.70;1.00;;;;;;;19.19;39.67;100565.71;105303;1281;22584;-53
2022/07/15 11:07:21;;;;;;;5.60;0.50;;;;;;;19.14;38.70;100576.58;105444;1280;23953;-52
2022/07/15 11:09:52;;;;;;;4.80;0.30;;;;;;;19.09;39.70;100567.46;105189;1281;24372;-53
2022/07/15 11:12:23;;;;;;;4.00;0.30;;;;;;;19.13;40.04;100569.58;105359;1281;22541;-52
2022/07/15 11:14:54;;;;;;;6.00;0.30;;;;;;;19.25;40.34;100563.58;105476;1282;22667;-50
2022/07/15 11:17:37;;;;;;;4.20;0.20;;;;;;;19.42;39.70;100567.23;105714;1281;26590;-53
2022/07/15 11:20:09;;;;;;;2.30;0.20;;;;;;;19.53;39.33;100562.98;105408;1276;22578;-53
2022/07/15 11:22:39;;;;;;;3.50;0.20;;;;;;;19.55;39.44;100561.05;105570;1276;25654;-53
2022/07/15 11:25:18;;;;;;;4.60;0.30;;;;;;;19.52;39.58;100570.52;105578;1274;24743;-51
2022/07/15 11:28:00;;;;;;;1.00;0.20;;;;;;;19.46;39.56;100572.78;105983;1271;22557;-52
2022/07/15 11:30:32;;;;;;;2.40;0.30;;;;;;;19.40;39.95;100570.34;106336;1271;24256;-56
2022/07/15 11:33:03;;;;;;;3.50;0.20;;;;;;;19.46;40.03;100569.34;106090;1271;22560;-52
2022/07/15 11:35:44;;;;;;;3.00;0.20;;;;;;;19.62;39.86;100567.40;106039;1271;22536;-52
2022/07/15 11:38:14;;;;;;;4.00;0.40;;;;;;;19.69;39.47;100562.63;106093;1271;22857;-55
2022/07/15 11:46:24;;;;;;;5.10;0.30;;;;;;;19.59;38.92;100564.40;105966;1272;22615;-54
2022/07/15 11:48:53;;;;;;;3.40;0.30;;;;;;;19.55;38.68;100564.14;106151;1270;24198;-54